createdAt,value
2022-07-25T00:00:42.979Z,47.12
2022-07-25T00:03:10.950Z,47.13
2022-07-25T00:05:38.202Z,47.09
2022-07-25T00:08:05.766Z,47.10
2022-07-25T00:10:32.822Z,47.10
2022-07-25T00:12:59.856Z,46.97
2022-07-25T00:15:26.821Z,47.14
2022-07-25T00:17:53.768Z,47.25
2022-07-25T00:20:21.226Z,47.11
2022-07-25T00:22:49.095Z,47.07
2022-07-25T00:25:16.143Z,47.08
2022-07-25T00:27:43.195Z,47.03
2022-07-25T00:30:10.756Z,47.18
2022-07-25T00:32:37.705Z,47.23
2022-07-25T00:35:05.267Z,47.27
2022-07-25T00:37:32.620Z,47.37
2022-07-25T00:39:59.670Z,47.38
2022-07-25T00:42:26.613Z,47.35
2022-07-25T00:44:54.098Z,47.41
2022-07-25T00:47:21.236Z,47.41
2022-07-25T00:49:48.281Z,47.41
2022-07-25T00:52:15.224Z,47.47
2022-07-25T00:54:42.175Z,47.44
2022-07-25T00:57:09.162Z,47.44
2022-07-25T00:59:36.166Z,47.30
2022-07-25T01:02:04.125Z,47.36
2022-07-25T01:04:31.803Z,47.23
2022-07-25T01:06:58.852Z,47.17
2022-07-25T01:09:27.438Z,47.07
2022-07-25T01:11:54.592Z,47.09
2022-07-25T01:14:22.738Z,47.02
2022-07-25T01:16:49.712Z,47.07
2022-07-25T01:19:17.684Z,46.96
2022-07-25T01:21:45.889Z,46.98
2022-07-25T01:24:13.317Z,46.96
2022-07-25T01:26:40.275Z,47.02
2022-07-25T01:29:07.249Z,46.95
2022-07-25T01:31:34.345Z,46.98
2022-07-25T01:34:01.310Z,47.03
2022-07-25T01:36:28.975Z,47.00
2022-07-25T01:38:56.439Z,47.06
2022-07-25T01:41:23.383Z,47.05
2022-07-25T01:43:50.263Z,47.02
2022-07-25T01:46:17.642Z,47.03
2022-07-25T01:48:44.814Z,46.98
2022-07-25T01:51:12.302Z,47.11
2022-07-25T01:53:40.199Z,47.18
2022-07-25T01:56:10.210Z,47.16
2022-07-25T01:58:39.100Z,47.32
2022-07-25T02:01:06.324Z,47.19
2022-07-25T02:03:33.391Z,47.26
2022-07-25T02:06:02.408Z,47.24
2022-07-25T02:08:30.979Z,47.08
2022-07-25T02:10:58.128Z,47.39
2022-07-25T02:13:25.379Z,47.57
2022-07-25T02:15:52.530Z,47.65
2022-07-25T02:18:19.738Z,47.79
2022-07-25T02:20:47.247Z,47.86
2022-07-25T02:23:14.802Z,47.85
2022-07-25T02:25:41.849Z,47.98
2022-07-25T02:28:10.670Z,48.01
2022-07-25T02:30:38.323Z,48.10
2022-07-25T02:33:05.468Z,48.30
2022-07-25T02:35:32.515Z,48.28
2022-07-25T02:38:00.390Z,48.30
2022-07-25T02:40:27.384Z,48.22
2022-07-25T02:42:54.284Z,48.33
2022-07-25T02:45:21.346Z,48.39
2022-07-25T02:47:48.388Z,48.41
2022-07-25T02:50:15.569Z,48.38
2022-07-25T02:52:43.619Z,48.48
2022-07-25T02:55:11.274Z,48.43
2022-07-25T02:57:38.329Z,48.44
2022-07-25T03:00:06.432Z,48.51
2022-07-25T03:02:33.454Z,48.51
2022-07-25T03:05:01.666Z,48.51
2022-07-25T03:07:30.219Z,48.44
2022-07-25T03:09:57.265Z,48.61
2022-07-25T03:12:24.314Z,48.74
2022-07-25T03:14:51.211Z,48.67
2022-07-25T03:17:18.288Z,48.82
2022-07-25T03:19:45.260Z,48.92
2022-07-25T03:22:12.309Z,48.80
2022-07-25T03:24:39.266Z,48.82
2022-07-25T03:27:06.215Z,49.06
2022-07-25T03:29:33.260Z,49.18
2022-07-25T03:32:01.048Z,49.18
2022-07-25T03:34:28.184Z,49.08
2022-07-25T03:36:55.436Z,49.35
2022-07-25T03:39:22.485Z,49.37
2022-07-25T03:41:49.543Z,49.19
2022-07-25T03:44:16.793Z,49.34
2022-07-25T03:46:43.858Z,49.39
2022-07-25T03:49:10.965Z,49.74
2022-07-25T03:51:38.268Z,49.41
2022-07-25T03:54:06.715Z,49.46
2022-07-25T03:56:41.558Z,49.83
2022-07-25T03:59:12.882Z,49.95
2022-07-25T04:01:40.184Z,50.33
2022-07-25T04:04:07.948Z,50.69
2022-07-25T04:06:35.462Z,50.41
2022-07-25T04:09:04.973Z,50.58
2022-07-25T04:11:32.133Z,50.39
2022-07-25T04:14:00.018Z,50.63
2022-07-25T04:16:27.818Z,50.90
2022-07-25T04:18:56.295Z,50.24
2022-07-25T04:21:24.677Z,49.99
2022-07-25T04:23:51.621Z,50.01
2022-07-25T04:26:18.773Z,50.17
2022-07-25T04:28:45.733Z,50.20
2022-07-25T04:31:13.027Z,50.13
2022-07-25T04:33:40.311Z,50.67
2022-07-25T04:36:07.742Z,50.32
2022-07-25T04:38:35.783Z,50.44
2022-07-25T04:41:03.861Z,50.02
2022-07-25T04:43:31.020Z,50.29
2022-07-25T04:45:58.144Z,50.19
2022-07-25T04:48:25.334Z,50.16
2022-07-25T04:50:52.906Z,50.03
2022-07-25T04:53:19.885Z,50.09
2022-07-25T04:55:47.430Z,50.13
2022-07-25T04:58:14.489Z,49.97
2022-07-25T05:00:41.936Z,50.08
2022-07-25T05:03:09.104Z,49.91
2022-07-25T05:05:36.257Z,49.92
2022-07-25T05:08:03.462Z,49.99
2022-07-25T05:10:30.674Z,50.01
2022-07-25T05:12:57.619Z,49.78
2022-07-25T05:15:25.080Z,49.69
2022-07-25T05:17:52.027Z,49.76
2022-07-25T05:20:19.188Z,49.63
2022-07-25T05:22:46.139Z,49.42
2022-07-25T05:25:13.188Z,49.29
2022-07-25T05:27:40.565Z,49.17
2022-07-25T05:30:09.367Z,49.01
2022-07-25T05:32:36.543Z,48.95
2022-07-25T05:35:04.758Z,48.90
2022-07-25T05:37:31.845Z,48.71
2022-07-25T05:39:58.996Z,48.80
2022-07-25T05:42:26.461Z,48.58
2022-07-25T05:44:53.613Z,48.65
2022-07-25T05:47:20.768Z,48.44
2022-07-25T05:49:47.921Z,48.28
2022-07-25T05:52:15.283Z,47.83
2022-07-25T05:54:43.153Z,47.71
2022-07-25T05:57:09.998Z,47.87
2022-07-25T05:59:37.051Z,47.66
2022-07-25T06:02:04.155Z,47.42
2022-07-25T06:04:31.553Z,47.22
2022-07-25T06:06:58.604Z,47.30
2022-07-25T06:09:25.558Z,47.03
2022-07-25T06:12:00.348Z,46.82
2022-07-25T06:14:28.996Z,46.57
2022-07-25T06:16:57.166Z,46.53
2022-07-25T06:19:24.407Z,45.91
2022-07-25T06:21:51.978Z,45.32
2022-07-25T06:24:19.443Z,45.57
2022-07-25T06:26:47.057Z,44.86
2022-07-25T06:29:14.972Z,44.84
2022-07-25T06:31:42.096Z,45.20
2022-07-25T06:34:13.182Z,45.05
2022-07-25T06:36:40.228Z,44.85
2022-07-25T06:39:07.794Z,44.34
2022-07-25T06:41:37.821Z,44.29
2022-07-25T06:44:05.486Z,43.92
2022-07-25T06:46:33.294Z,42.99
2022-07-25T06:49:00.480Z,43.26
2022-07-25T06:51:28.187Z,43.14
2022-07-25T06:53:56.913Z,43.09
2022-07-25T06:56:24.541Z,42.93
2022-07-25T06:58:53.531Z,42.75
2022-07-25T07:01:20.686Z,42.15
2022-07-25T07:03:48.623Z,41.78
2022-07-25T07:06:16.115Z,41.24
2022-07-25T07:08:44.187Z,41.11
2022-07-25T07:11:11.164Z,40.66
2022-07-25T07:13:39.012Z,40.58
2022-07-25T07:16:06.708Z,40.18
2022-07-25T07:18:33.712Z,40.29
2022-07-25T07:21:00.975Z,39.47
2022-07-25T07:23:28.991Z,39.08
2022-07-25T07:25:56.919Z,38.85
2022-07-25T07:28:24.005Z,38.72
2022-07-25T07:33:38.458Z,38.39
2022-07-25T07:36:06.393Z,38.86
2022-07-25T07:38:35.063Z,38.96
2022-07-25T07:41:02.075Z,38.36
2022-07-25T07:43:32.036Z,37.36
2022-07-25T07:46:01.519Z,37.66
2022-07-25T07:48:30.065Z,37.71
2022-07-25T07:50:57.650Z,38.12
2022-07-25T07:53:44.670Z,37.47
2022-07-25T07:56:12.406Z,36.68
2022-07-25T07:58:39.485Z,35.82
2022-07-25T08:01:06.684Z,34.99
2022-07-25T08:03:33.706Z,35.51
2022-07-25T08:06:00.748Z,33.98
2022-07-25T08:08:31.121Z,35.17
2022-07-25T08:10:59.428Z,35.28
2022-07-25T08:13:31.319Z,35.77
2022-07-25T08:15:59.679Z,35.66
2022-07-25T08:18:30.019Z,35.07
2022-07-25T08:20:57.715Z,35.26
2022-07-25T08:23:25.913Z,34.44
2022-07-25T08:25:52.941Z,32.47
2022-07-25T08:28:20.322Z,32.09
2022-07-25T08:30:47.712Z,33.16
2022-07-25T08:33:16.458Z,32.46
2022-07-25T08:35:48.696Z,31.73
2022-07-25T08:38:16.530Z,30.99
2022-07-25T08:40:43.548Z,31.47
2022-07-25T08:43:14.730Z,31.99
2022-07-25T08:45:46.489Z,31.74
2022-07-25T08:48:14.227Z,31.45
2022-07-25T08:50:41.789Z,30.61
2022-07-25T08:55:56.065Z,30.23
2022-07-25T08:58:23.154Z,31.10
2022-07-25T09:00:50.887Z,29.51
2022-07-25T09:03:18.033Z,29.50
2022-07-25T09:05:45.274Z,29.52
2022-07-25T09:08:17.721Z,29.06
2022-07-25T09:10:52.160Z,28.73
2022-07-25T09:13:20.799Z,27.61
2022-07-25T09:15:56.791Z,27.61
2022-07-25T09:18:25.127Z,27.05
2022-07-25T09:20:59.958Z,27.30
2022-07-25T09:23:33.769Z,28.48
2022-07-25T09:26:14.238Z,28.08
2022-07-25T09:28:48.333Z,27.27
2022-07-25T09:31:16.815Z,26.85
2022-07-25T09:33:48.185Z,25.65
2022-07-25T09:36:15.233Z,26.55
2022-07-25T09:38:55.184Z,26.66
2022-07-25T09:41:22.434Z,26.89
2022-07-25T09:43:49.588Z,26.75
2022-07-25T09:46:17.178Z,26.05
2022-07-25T09:48:46.092Z,25.26
2022-07-25T09:51:13.808Z,25.62
2022-07-25T09:53:40.962Z,25.87
2022-07-25T09:56:08.826Z,25.37
2022-07-25T09:58:35.876Z,24.43
2022-07-25T10:01:06.481Z,24.27
2022-07-25T10:03:52.107Z,24.48
2022-07-25T10:06:28.464Z,24.02
2022-07-25T10:08:55.517Z,24.03
2022-07-25T10:11:24.301Z,23.33
2022-07-25T10:13:52.900Z,23.02
2022-07-25T10:16:25.045Z,23.31
2022-07-25T10:18:56.850Z,24.14
2022-07-25T10:21:27.273Z,24.15
2022-07-25T10:23:59.133Z,24.39
2022-07-25T10:26:27.205Z,23.74
2022-07-25T10:28:59.377Z,23.29
2022-07-25T10:31:34.261Z,23.31
2022-07-25T10:34:03.729Z,23.04
2022-07-25T10:37:10.264Z,22.29
2022-07-25T10:39:39.124Z,23.02
2022-07-25T10:42:06.337Z,23.18
2022-07-25T10:44:48.541Z,23.10
2022-07-25T10:47:17.008Z,22.84
2022-07-25T10:50:06.825Z,22.65
2022-07-25T10:52:33.560Z,22.44
2022-07-25T10:55:01.743Z,22.50
2022-07-25T10:57:32.068Z,22.53
2022-07-25T11:00:07.084Z,23.15
2022-07-25T11:02:34.696Z,22.95
2022-07-25T11:05:03.288Z,23.21
2022-07-25T11:07:36.460Z,23.27
2022-07-25T11:10:05.449Z,23.50
2022-07-25T11:12:32.745Z,23.46
2022-07-25T11:15:05.119Z,23.54
2022-07-25T11:17:32.852Z,23.66
2022-07-25T11:20:06.043Z,23.14
2022-07-25T11:22:33.299Z,22.56
2022-07-25T11:25:00.797Z,23.01
2022-07-25T11:27:32.839Z,23.20
2022-07-25T11:30:14.912Z,22.93
2022-07-25T11:32:46.789Z,22.97
2022-07-25T11:35:14.863Z,22.97
2022-07-25T11:37:47.915Z,22.94
2022-07-25T11:40:16.700Z,23.43
2022-07-25T11:42:48.304Z,23.91
2022-07-25T11:45:26.418Z,23.78
2022-07-25T11:48:07.915Z,23.97
2022-07-25T11:50:37.097Z,23.73
2022-07-25T11:53:11.322Z,24.17
2022-07-25T11:55:43.582Z,24.12
2022-07-25T11:58:13.085Z,23.38
2022-07-25T12:00:41.924Z,23.69
2022-07-25T12:03:15.464Z,23.88
2022-07-25T12:05:46.023Z,23.43
2022-07-25T12:08:15.580Z,23.80
2022-07-25T12:10:44.289Z,23.73
2022-07-25T12:13:25.110Z,23.49
2022-07-25T12:15:52.659Z,23.77
2022-07-25T12:18:20.334Z,24.06
2022-07-25T12:20:47.285Z,24.40
2022-07-25T12:23:14.748Z,24.45
2022-07-25T12:25:45.994Z,24.32
2022-07-25T12:28:15.335Z,24.27
2022-07-25T12:30:43.801Z,24.06
2022-07-25T12:33:12.775Z,24.08
2022-07-25T12:35:44.496Z,23.98
2022-07-25T12:38:12.081Z,24.25
2022-07-25T12:40:39.393Z,24.35
2022-07-25T12:43:08.782Z,24.34
2022-07-25T12:45:36.831Z,24.51
2022-07-25T12:48:04.683Z,24.52
2022-07-25T12:50:32.022Z,23.95
2022-07-25T12:52:59.484Z,23.47
2022-07-25T12:55:26.528Z,24.01
2022-07-25T12:57:53.505Z,23.68
2022-07-25T13:00:21.648Z,23.61
2022-07-25T13:02:49.478Z,23.46
2022-07-25T13:05:17.281Z,23.22
2022-07-25T13:07:45.144Z,23.08
2022-07-25T13:10:12.915Z,22.86
2022-07-25T13:12:39.964Z,23.22
2022-07-25T13:15:08.231Z,23.50
2022-07-25T13:17:35.900Z,23.44
2022-07-25T13:20:03.355Z,23.57
2022-07-25T13:22:30.401Z,23.29
2022-07-25T13:24:57.461Z,23.04
2022-07-25T13:27:25.009Z,23.32
2022-07-25T13:29:54.934Z,22.66
2022-07-25T13:32:22.892Z,22.72
2022-07-25T13:34:50.367Z,23.04
2022-07-25T13:37:17.403Z,22.97
2022-07-25T13:39:44.482Z,22.89
2022-07-25T13:42:11.511Z,22.33
2022-07-25T13:44:38.491Z,22.16
2022-07-25T13:47:05.588Z,22.29
2022-07-25T13:49:32.816Z,22.08
2022-07-25T13:51:59.843Z,22.13
2022-07-25T13:54:27.073Z,22.06
2022-07-25T13:56:54.119Z,22.73
2022-07-25T13:59:22.003Z,22.57
2022-07-25T14:01:50.214Z,22.69
2022-07-25T14:04:17.526Z,22.70
2022-07-25T14:06:44.572Z,22.55
2022-07-25T14:09:11.789Z,22.33
2022-07-25T14:11:38.981Z,22.58
2022-07-25T14:14:06.033Z,22.78
2022-07-25T14:16:34.151Z,22.68
2022-07-25T14:19:02.288Z,22.78
2022-07-25T14:21:30.448Z,22.55
2022-07-25T14:23:57.398Z,22.54
2022-07-25T14:26:24.458Z,22.58
2022-07-25T14:28:51.430Z,22.15
2022-07-25T14:31:18.692Z,22.17
2022-07-25T14:33:45.643Z,22.25
2022-07-25T14:36:13.062Z,22.26
2022-07-25T14:38:39.940Z,22.68
2022-07-25T14:41:12.354Z,22.72
2022-07-25T14:43:40.723Z,22.57
2022-07-25T14:46:08.439Z,22.54
2022-07-25T14:48:36.692Z,22.80
2022-07-25T14:51:04.286Z,23.04
2022-07-25T14:53:32.464Z,23.24
2022-07-25T14:56:01.083Z,23.37
2022-07-25T14:58:28.194Z,23.58
2022-07-25T15:00:55.133Z,23.63
2022-07-25T15:03:22.401Z,23.61
2022-07-25T15:05:49.390Z,23.27
2022-07-25T15:08:16.608Z,23.39
2022-07-25T15:10:43.758Z,23.33
2022-07-25T15:15:57.899Z,23.42
2022-07-25T15:18:25.085Z,23.63
2022-07-25T15:20:52.229Z,23.68
2022-07-25T15:23:21.408Z,23.57
2022-07-25T15:26:04.755Z,23.51
2022-07-25T15:28:36.956Z,23.38
2022-07-25T15:31:04.995Z,23.24
2022-07-25T15:33:32.380Z,23.28
2022-07-25T15:35:59.538Z,23.24
2022-07-25T15:38:26.583Z,23.34
2022-07-25T15:40:53.635Z,23.40
2022-07-25T15:43:21.121Z,23.30
2022-07-25T15:45:48.655Z,23.42
2022-07-25T15:48:16.733Z,23.49
2022-07-25T15:50:47.771Z,23.72
2022-07-25T15:53:14.723Z,23.73
2022-07-25T15:55:41.878Z,23.82
2022-07-25T15:58:09.660Z,24.10
2022-07-25T16:00:37.300Z,24.34
2022-07-25T16:03:04.770Z,24.55
2022-07-25T16:05:31.722Z,24.81
2022-07-25T16:08:02.151Z,25.12
2022-07-25T16:10:30.228Z,25.14
2022-07-25T16:12:57.180Z,25.35
2022-07-25T16:15:25.357Z,25.29
2022-07-25T16:17:53.859Z,25.39
2022-07-25T16:20:20.892Z,25.57
2022-07-25T16:22:49.274Z,25.62
2022-07-25T16:25:16.325Z,25.65
2022-07-25T16:27:43.280Z,25.74
2022-07-25T16:30:10.831Z,25.78
2022-07-25T16:32:37.883Z,25.82
2022-07-25T16:35:05.739Z,26.03
2022-07-25T16:37:33.022Z,26.07
2022-07-25T16:39:59.975Z,26.34
2022-07-25T16:42:27.026Z,26.36
2022-07-25T16:44:53.974Z,26.45
2022-07-25T16:47:21.846Z,26.49
2022-07-25T16:49:49.414Z,26.62
2022-07-25T16:52:16.465Z,26.76
2022-07-25T16:54:43.719Z,26.76
2022-07-25T16:57:10.873Z,26.94
2022-07-25T16:59:38.131Z,26.97
2022-07-25T17:02:05.351Z,27.02
2022-07-25T17:04:32.699Z,27.26
2022-07-25T17:06:59.803Z,27.34
2022-07-25T17:09:26.844Z,27.43
2022-07-25T17:11:53.692Z,27.48
2022-07-25T17:14:21.704Z,27.46
2022-07-25T17:16:51.491Z,27.53
2022-07-25T17:19:19.773Z,27.79
2022-07-25T17:21:47.235Z,27.99
2022-07-25T17:24:14.396Z,27.96
2022-07-25T17:26:41.495Z,28.12
2022-07-25T17:29:08.964Z,28.02
2022-07-25T17:31:37.083Z,28.22
2022-07-25T17:34:04.819Z,28.20
2022-07-25T17:36:31.812Z,28.31
2022-07-25T17:38:58.767Z,28.23
2022-07-25T17:41:25.822Z,28.43
2022-07-25T17:43:52.981Z,28.55
2022-07-25T17:46:20.091Z,28.60
2022-07-25T17:48:47.313Z,28.65
2022-07-25T17:51:14.338Z,28.73
2022-07-25T17:53:42.670Z,28.83
2022-07-25T17:56:09.763Z,28.84
2022-07-25T17:58:37.206Z,28.98
2022-07-25T18:01:09.899Z,29.03
2022-07-25T18:03:38.237Z,29.14
2022-07-25T18:06:05.742Z,29.28
2022-07-25T18:08:35.544Z,29.45
2022-07-25T18:11:03.907Z,29.49
2022-07-25T18:13:31.055Z,29.52
2022-07-25T18:15:58.168Z,29.73
2022-07-25T18:18:25.228Z,29.80
2022-07-25T18:20:52.811Z,29.99
2022-07-25T18:23:20.399Z,29.95
2022-07-25T18:25:48.037Z,30.27
2022-07-25T18:28:15.717Z,30.21
2022-07-25T18:30:42.794Z,30.28
2022-07-25T18:33:11.112Z,30.50
2022-07-25T18:35:38.612Z,30.68
2022-07-25T18:38:06.235Z,30.54
2022-07-25T18:40:34.377Z,30.59
2022-07-25T18:43:04.056Z,30.71
2022-07-25T18:45:38.936Z,30.73
2022-07-25T18:48:07.225Z,30.87
2022-07-25T18:50:34.261Z,30.81
2022-07-25T18:53:01.412Z,30.73
2022-07-25T18:55:28.557Z,30.96
2022-07-25T18:57:55.705Z,31.19
2022-07-25T19:00:22.857Z,31.38
2022-07-25T19:02:50.821Z,31.46
2022-07-25T19:05:18.802Z,31.44
2022-07-25T19:07:45.950Z,31.62
2022-07-25T19:10:13.192Z,31.57
2022-07-25T19:12:40.249Z,31.70
2022-07-25T19:15:07.895Z,31.75
2022-07-25T19:17:35.253Z,31.78
2022-07-25T19:20:02.526Z,31.90
2022-07-25T19:22:29.752Z,31.97
2022-07-25T19:24:57.175Z,32.08
2022-07-25T19:27:26.104Z,32.30
2022-07-25T19:29:54.394Z,32.43
2022-07-25T19:32:22.822Z,32.47
2022-07-25T19:34:49.829Z,32.66
2022-07-25T19:37:17.179Z,32.86
2022-07-25T19:39:44.130Z,32.87
2022-07-25T19:42:12.522Z,33.00
2022-07-25T19:44:39.677Z,33.13
2022-07-25T19:47:11.204Z,33.29
2022-07-25T19:49:40.243Z,33.45
2022-07-25T19:52:08.993Z,33.59
2022-07-25T19:54:36.301Z,33.71
2022-07-25T19:57:03.762Z,33.85
2022-07-25T19:59:30.920Z,33.81
2022-07-25T20:01:58.077Z,33.98
2022-07-25T20:04:25.652Z,34.08
2022-07-25T20:06:53.227Z,34.16
2022-07-25T20:09:20.892Z,34.22
2022-07-25T20:11:47.946Z,34.34
2022-07-25T20:14:15.929Z,34.40
2022-07-25T20:16:43.044Z,34.51
2022-07-25T20:19:11.995Z,34.78
2022-07-25T20:21:39.659Z,34.91
2022-07-25T20:24:07.492Z,34.99
2022-07-25T20:26:35.198Z,34.98
2022-07-25T20:29:02.766Z,35.17
2022-07-25T20:31:29.996Z,35.35
2022-07-25T20:33:57.922Z,35.44
2022-07-25T20:36:25.481Z,35.40
2022-07-25T20:38:53.044Z,35.62
2022-07-25T20:41:20.512Z,35.59
2022-07-25T20:43:48.079Z,35.72
2022-07-25T20:46:15.095Z,35.86
2022-07-25T20:48:42.070Z,35.87
2022-07-25T20:51:09.150Z,35.94
2022-07-25T20:53:36.207Z,36.07
2022-07-25T20:56:03.261Z,36.12
2022-07-25T20:58:30.656Z,36.30
2022-07-25T21:00:59.885Z,36.40
2022-07-25T21:03:27.086Z,36.43
2022-07-25T21:05:53.934Z,36.39
2022-07-25T21:08:20.984Z,36.47
2022-07-25T21:10:48.034Z,36.63
2022-07-25T21:13:18.385Z,36.72
2022-07-25T21:15:45.718Z,36.79
2022-07-25T21:18:12.770Z,36.77
2022-07-25T21:20:39.717Z,36.84
2022-07-25T21:23:06.866Z,36.91
2022-07-25T21:25:33.915Z,36.99
2022-07-25T21:28:00.966Z,37.03
2022-07-25T21:30:27.911Z,37.12
2022-07-25T21:32:54.960Z,37.20
2022-07-25T21:35:22.423Z,37.27
2022-07-25T21:37:49.885Z,37.42
2022-07-25T21:40:16.933Z,37.60
2022-07-25T21:42:43.882Z,37.55
2022-07-25T21:45:11.579Z,37.60
2022-07-25T21:47:38.500Z,37.66
2022-07-25T21:50:25.751Z,37.78
2022-07-25T21:52:53.900Z,37.92
2022-07-25T21:55:21.466Z,38.01
2022-07-25T21:57:49.141Z,37.99
2022-07-25T22:00:16.942Z,38.12
2022-07-25T22:02:45.203Z,38.25
2022-07-25T22:05:13.493Z,38.38
2022-07-25T22:07:40.812Z,38.48
